createdAt,value
2018-11-22T00:00:44.394Z,29.20
2018-11-22T00:01:44.378Z,30.40
2018-11-22T00:02:44.365Z,31.50
2018-11-22T00:03:44.347Z,29.50
2018-11-22T00:04:44.330Z,30.20
2018-11-22T00:05:44.318Z,29.10
2018-11-22T00:06:44.299Z,29.50
2018-11-22T00:07:44.282Z,28.70
2018-11-22T00:08:44.268Z,30.80
2018-11-22T00:09:44.251Z,30.90
2018-11-22T00:10:44.233Z,29.20
2018-11-22T00:11:44.216Z,30.40
2018-11-22T00:12:44.201Z,31.00
2018-11-22T00:13:44.185Z,29.50
2018-11-22T00:14:44.166Z,30.70
2018-11-22T00:15:44.152Z,31.20
2018-11-22T00:16:44.138Z,32.20
2018-11-22T00:17:44.119Z,31.30
2018-11-22T00:18:44.098Z,31.20
2018-11-22T00:19:44.088Z,31.00
2018-11-22T00:20:44.069Z,30.60
2018-11-22T00:21:44.051Z,30.30
2018-11-22T00:22:44.034Z,30.80
2018-11-22T00:23:44.019Z,29.90
2018-11-22T00:24:44.003Z,31.00
2018-11-22T00:25:43.986Z,30.50
2018-11-22T00:26:43.970Z,30.50
2018-11-22T00:27:43.957Z,29.80
2018-11-22T00:28:43.939Z,29.60
2018-11-22T00:29:43.924Z,30.70
2018-11-22T00:30:43.905Z,29.80
2018-11-22T00:31:43.890Z,31.00
2018-11-22T00:32:43.880Z,30.30
2018-11-22T00:33:43.861Z,30.10
2018-11-22T00:34:43.840Z,30.60
2018-11-22T00:35:43.826Z,29.10
2018-11-22T00:36:43.807Z,30.60
2018-11-22T00:37:43.794Z,30.60
2018-11-22T00:38:43.777Z,29.90
2018-11-22T00:39:43.762Z,31.40
2018-11-22T00:40:43.743Z,31.00
2018-11-22T00:41:43.728Z,28.80
2018-11-22T00:42:43.710Z,31.30
2018-11-22T00:43:43.696Z,31.90
2018-11-22T00:44:43.680Z,31.10
2018-11-22T00:45:43.662Z,30.10
2018-11-22T00:46:43.648Z,30.20
2018-11-22T00:47:43.628Z,30.30
2018-11-22T00:48:43.616Z,30.60
2018-11-22T00:49:43.598Z,29.80
2018-11-22T00:50:43.580Z,31.50
2018-11-22T00:51:43.564Z,30.90
2018-11-22T00:52:43.548Z,31.50
2018-11-22T00:53:43.534Z,30.10
2018-11-22T00:54:43.514Z,31.60
2018-11-22T00:55:43.498Z,31.70
2018-11-22T00:56:43.482Z,30.30
2018-11-22T00:57:43.466Z,29.20
2018-11-22T00:58:43.450Z,30.20
2018-11-22T00:59:43.434Z,30.10
2018-11-22T01:00:43.419Z,31.20
2018-11-22T01:01:43.401Z,31.80
2018-11-22T01:02:43.387Z,31.20
2018-11-22T01:03:43.371Z,30.20
2018-11-22T01:04:43.353Z,30.50
2018-11-22T01:05:43.339Z,30.60
2018-11-22T01:06:43.319Z,30.50
2018-11-22T01:07:43.306Z,31.40
2018-11-22T01:08:43.290Z,32.00
2018-11-22T01:09:43.274Z,31.10
2018-11-22T01:10:43.263Z,30.40
2018-11-22T01:11:43.241Z,31.60
2018-11-22T01:12:43.225Z,30.20
2018-11-22T01:13:43.207Z,31.10
2018-11-22T01:14:43.192Z,31.30
2018-11-22T01:15:43.174Z,30.10
2018-11-22T01:16:43.161Z,31.40
2018-11-22T01:17:43.145Z,31.80
2018-11-22T01:18:43.126Z,29.50
2018-11-22T01:19:43.111Z,30.30
2018-11-22T01:20:43.096Z,30.50
2018-11-22T01:21:43.079Z,31.60
2018-11-22T01:22:43.062Z,30.00
2018-11-22T01:23:43.046Z,30.10
2018-11-22T01:24:43.028Z,31.50
2018-11-22T01:25:43.014Z,31.60
2018-11-22T01:26:42.996Z,31.20
2018-11-22T01:27:42.986Z,31.40
2018-11-22T01:28:42.965Z,31.30
2018-11-22T01:29:42.948Z,30.50
2018-11-22T01:30:42.932Z,31.80
2018-11-22T01:31:42.916Z,30.70
2018-11-22T01:32:42.906Z,31.10
2018-11-22T01:33:42.885Z,32.30
2018-11-22T01:34:42.868Z,31.50
2018-11-22T01:35:42.853Z,30.70
2018-11-22T01:36:42.834Z,31.30
2018-11-22T01:37:42.820Z,33.50
2018-11-22T01:38:42.803Z,31.10
2018-11-22T01:39:42.786Z,32.70
2018-11-22T01:40:42.771Z,32.30
2018-11-22T01:41:42.756Z,32.30
2018-11-22T01:42:42.738Z,31.30
2018-11-22T01:43:42.722Z,32.50
2018-11-22T01:44:42.708Z,31.20
2018-11-22T01:45:42.690Z,31.70
2018-11-22T01:46:42.673Z,31.00
2018-11-22T01:47:42.657Z,30.70
2018-11-22T01:48:42.643Z,31.40
2018-11-22T01:49:42.625Z,30.50
2018-11-22T01:50:42.609Z,31.80
2018-11-22T01:51:42.592Z,30.60
2018-11-22T01:52:42.576Z,31.10
2018-11-22T01:53:42.561Z,32.00
2018-11-22T01:54:42.544Z,31.70
2018-11-22T01:55:42.528Z,30.90
2018-11-22T01:56:42.510Z,31.20
2018-11-22T01:57:42.497Z,32.10
2018-11-22T01:58:42.482Z,31.20
2018-11-22T01:59:42.465Z,33.50
2018-11-22T02:00:42.447Z,30.90
2018-11-22T02:01:42.431Z,33.90
2018-11-22T02:02:42.414Z,32.60
2018-11-22T02:03:42.398Z,31.30
2018-11-22T02:04:42.381Z,32.70
2018-11-22T02:05:42.366Z,31.50
2018-11-22T02:06:42.351Z,32.10
2018-11-22T02:07:42.332Z,32.70
2018-11-22T02:08:42.322Z,32.60
2018-11-22T02:09:42.304Z,32.30
2018-11-22T02:10:42.286Z,31.70
2018-11-22T02:11:42.276Z,32.20
2018-11-22T02:12:42.255Z,32.50
2018-11-22T02:13:42.236Z,33.90
2018-11-22T02:14:42.223Z,33.70
2018-11-22T02:15:42.203Z,33.10
2018-11-22T02:16:42.190Z,33.40
2018-11-22T02:17:42.175Z,33.50
2018-11-22T02:18:42.157Z,32.20
2018-11-22T02:19:42.143Z,31.80
2018-11-22T02:20:42.124Z,32.00
2018-11-22T02:21:42.108Z,32.10
2018-11-22T02:22:42.091Z,33.80
2018-11-22T02:23:42.077Z,31.40
2018-11-22T02:24:42.059Z,30.60
2018-11-22T02:25:42.044Z,31.70
2018-11-22T02:26:42.028Z,31.20
2018-11-22T02:27:42.009Z,32.30
2018-11-22T02:28:41.993Z,31.00
2018-11-22T02:29:41.979Z,32.50
2018-11-22T02:30:41.965Z,30.90
2018-11-22T02:31:41.946Z,30.60
2018-11-22T02:32:41.930Z,33.30
2018-11-22T02:33:41.917Z,32.10
2018-11-22T02:34:41.897Z,32.10
2018-11-22T02:35:41.883Z,33.10
2018-11-22T02:36:41.865Z,32.90
2018-11-22T02:37:41.852Z,33.10
2018-11-22T02:38:41.835Z,31.90
2018-11-22T02:39:41.817Z,33.50
2018-11-22T02:40:41.800Z,33.00
2018-11-22T02:41:41.787Z,31.60
2018-11-22T02:42:41.769Z,33.40
2018-11-22T02:43:41.754Z,32.20
2018-11-22T02:44:41.738Z,32.10
2018-11-22T02:45:41.720Z,32.40
2018-11-22T02:46:41.703Z,32.90
2018-11-22T02:47:41.687Z,32.40
2018-11-22T02:48:41.672Z,30.90
2018-11-22T02:49:41.654Z,31.90
2018-11-22T02:50:41.639Z,33.00
2018-11-22T02:51:41.623Z,32.20
2018-11-22T02:52:41.607Z,32.70
2018-11-22T02:53:41.591Z,31.70
2018-11-22T02:54:41.575Z,32.60
2018-11-22T02:55:41.558Z,32.40
2018-11-22T02:56:41.545Z,30.80
2018-11-22T02:57:41.528Z,33.70
2018-11-22T02:58:41.513Z,32.30
2018-11-22T02:59:41.494Z,33.50
2018-11-22T03:00:41.477Z,32.60
2018-11-22T03:01:41.462Z,33.10
2018-11-22T03:02:41.444Z,34.20
2018-11-22T03:03:41.428Z,33.30
2018-11-22T03:04:41.411Z,34.00
2018-11-22T03:05:41.397Z,32.90
2018-11-22T03:06:41.384Z,32.50
2018-11-22T03:07:41.364Z,33.80
2018-11-22T03:08:41.348Z,32.40
2018-11-22T03:09:41.332Z,33.20
2018-11-22T03:10:41.314Z,32.40
2018-11-22T03:11:41.300Z,32.20
2018-11-22T03:12:41.283Z,31.20
2018-11-22T03:13:41.271Z,32.50
2018-11-22T03:14:41.260Z,32.50
2018-11-22T03:15:41.235Z,31.60
2018-11-22T03:16:41.220Z,33.30
2018-11-22T03:17:41.202Z,32.50
2018-11-22T03:18:41.186Z,31.60
2018-11-22T03:19:41.172Z,31.00
2018-11-22T03:20:41.155Z,31.70
2018-11-22T03:21:41.137Z,30.80
2018-11-22T03:22:41.120Z,30.60
2018-11-22T03:23:41.143Z,31.40
2018-11-22T03:24:41.089Z,31.40
2018-11-22T03:25:41.071Z,32.30
2018-11-22T03:26:41.055Z,31.50
2018-11-22T03:27:41.040Z,32.10
2018-11-22T03:28:41.023Z,32.60
2018-11-22T03:29:41.008Z,32.80
2018-11-22T03:30:40.991Z,31.90
2018-11-22T03:31:40.975Z,30.30
2018-11-22T03:32:40.957Z,30.50
2018-11-22T03:33:40.941Z,30.50
2018-11-22T03:34:40.925Z,30.60
2018-11-22T03:35:40.911Z,32.00
2018-11-22T03:36:40.895Z,31.50
2018-11-22T03:37:40.876Z,31.30
2018-11-22T03:38:40.860Z,31.80
2018-11-22T03:39:40.843Z,31.80
2018-11-22T03:40:40.828Z,32.10
2018-11-22T03:41:40.812Z,30.50
2018-11-22T03:42:40.797Z,31.60
2018-11-22T03:43:40.780Z,32.00
2018-11-22T03:44:40.763Z,32.70
2018-11-22T03:45:40.747Z,30.60
2018-11-22T03:46:40.729Z,32.40
2018-11-22T03:47:40.712Z,30.10
2018-11-22T03:48:40.698Z,30.70
2018-11-22T03:49:40.682Z,30.80
2018-11-22T03:50:40.662Z,31.00
2018-11-22T03:51:40.648Z,30.90
2018-11-22T03:52:40.631Z,32.10
2018-11-22T03:53:40.616Z,29.60
2018-11-22T03:54:40.599Z,31.10
2018-11-22T03:55:40.583Z,30.60
2018-11-22T03:56:40.567Z,30.90
2018-11-22T03:57:40.551Z,31.50
2018-11-22T03:58:40.533Z,32.00
2018-11-22T03:59:40.518Z,29.50
2018-11-22T04:00:40.502Z,31.20
2018-11-22T04:01:40.490Z,30.70
2018-11-22T04:02:40.469Z,30.20
2018-11-22T04:03:40.455Z,31.70
2018-11-22T04:04:40.435Z,29.90
2018-11-22T04:05:40.421Z,30.40
2018-11-22T04:06:40.401Z,30.00
2018-11-22T04:07:40.386Z,29.30
2018-11-22T04:08:40.369Z,30.50
2018-11-22T04:09:40.355Z,30.00
2018-11-22T04:10:40.335Z,29.70
2018-11-22T04:11:40.321Z,29.60
2018-11-22T04:12:40.307Z,31.20
2018-11-22T04:13:40.290Z,29.10
2018-11-22T04:14:40.277Z,30.80
2018-11-22T04:15:40.254Z,30.40
2018-11-22T04:16:40.237Z,30.30
2018-11-22T04:17:40.222Z,30.10
2018-11-22T04:18:40.205Z,29.40
2018-11-22T04:19:40.189Z,29.80
2018-11-22T04:20:40.171Z,28.90
2018-11-22T04:21:40.155Z,29.40
2018-11-22T04:22:40.138Z,30.20
2018-11-22T04:23:40.128Z,30.30
2018-11-22T04:24:40.109Z,30.40
2018-11-22T04:25:40.090Z,29.90
2018-11-22T04:26:40.072Z,31.20
2018-11-22T04:27:40.056Z,29.30
2018-11-22T04:28:40.039Z,30.30
2018-11-22T04:29:40.033Z,31.80
2018-11-22T04:30:40.008Z,30.60
2018-11-22T04:31:39.991Z,31.80
2018-11-22T04:32:39.976Z,30.00
2018-11-22T04:33:39.960Z,29.80
2018-11-22T04:34:39.944Z,31.40
2018-11-22T04:35:39.929Z,31.30
2018-11-22T04:36:39.908Z,30.30
2018-11-22T04:37:39.892Z,30.60
2018-11-22T04:38:39.877Z,31.30
2018-11-22T04:39:39.860Z,31.40
2018-11-22T04:40:39.845Z,29.40
2018-11-22T04:41:39.829Z,29.80
2018-11-22T04:42:39.809Z,30.90
2018-11-22T04:43:39.793Z,30.30
2018-11-22T04:44:39.777Z,29.10
2018-11-22T04:45:39.759Z,31.90
2018-11-22T04:46:39.743Z,33.00
2018-11-22T04:47:39.727Z,30.00
2018-11-22T04:48:39.712Z,31.00
2018-11-22T04:49:39.696Z,31.00
2018-11-22T04:50:39.679Z,31.00
2018-11-22T04:51:39.663Z,31.80
2018-11-22T04:52:39.648Z,31.50
2018-11-22T04:53:39.629Z,31.70
2018-11-22T04:54:39.613Z,32.40
2018-11-22T04:55:39.597Z,32.20
2018-11-22T04:56:39.579Z,31.00
2018-11-22T04:57:39.567Z,31.40
2018-11-22T04:58:39.549Z,31.50
2018-11-22T04:59:39.530Z,31.20
2018-11-22T05:00:39.515Z,30.60
2018-11-22T05:01:39.499Z,29.30
2018-11-22T05:02:39.482Z,30.90
2018-11-22T05:03:39.468Z,30.80
2018-11-22T05:04:39.448Z,32.60
2018-11-22T05:05:39.431Z,34.60
2018-11-22T05:06:39.414Z,31.90
2018-11-22T05:07:39.398Z,32.30
2018-11-22T05:08:39.386Z,31.10
2018-11-22T05:09:39.370Z,32.60
2018-11-22T05:10:39.347Z,32.10
2018-11-22T05:11:39.333Z,31.40
2018-11-22T05:12:39.315Z,31.90
2018-11-22T05:13:39.304Z,34.20
2018-11-22T05:14:39.287Z,33.00
2018-11-22T05:15:39.271Z,31.90
2018-11-22T05:16:39.251Z,32.70
2018-11-22T05:17:39.233Z,31.50
2018-11-22T05:18:39.218Z,32.00
2018-11-22T05:19:39.200Z,32.70
2018-11-22T05:20:39.183Z,31.80
2018-11-22T05:21:39.172Z,32.40
2018-11-22T05:22:39.151Z,32.10
2018-11-22T05:23:39.136Z,31.60
2018-11-22T05:24:39.118Z,32.20
2018-11-22T05:25:39.102Z,33.40
2018-11-22T05:26:39.085Z,33.00
2018-11-22T05:27:39.069Z,31.20
2018-11-22T05:28:39.054Z,33.10
2018-11-22T05:29:39.041Z,31.90
2018-11-22T05:30:39.019Z,33.80
2018-11-22T05:31:39.004Z,32.20
2018-11-22T05:32:38.989Z,33.50
2018-11-22T05:33:38.974Z,32.30
2018-11-22T05:34:38.954Z,32.20
2018-11-22T05:35:38.938Z,31.90
2018-11-22T05:36:38.920Z,32.70
2018-11-22T05:37:38.905Z,31.70
2018-11-22T05:38:38.888Z,31.00
2018-11-22T05:39:38.871Z,31.20
2018-11-22T05:40:38.855Z,30.70
2018-11-22T05:41:39.612Z,32.10
2018-11-22T05:42:38.822Z,31.40
2018-11-22T05:43:38.807Z,32.50
2018-11-22T05:44:38.790Z,31.20
2018-11-22T05:45:38.775Z,31.10
2018-11-22T05:46:38.758Z,32.10
2018-11-22T05:47:38.741Z,31.50
2018-11-22T05:48:38.727Z,32.40
2018-11-22T05:49:38.707Z,32.60
2018-11-22T05:50:38.694Z,32.70
2018-11-22T05:51:38.678Z,31.50
2018-11-22T05:52:38.659Z,32.10
2018-11-22T05:53:38.650Z,32.40
2018-11-22T05:54:38.625Z,32.10
2018-11-22T05:55:38.608Z,33.00
2018-11-22T05:56:38.592Z,32.40
2018-11-22T05:57:38.578Z,33.40
2018-11-22T05:58:38.562Z,34.70
2018-11-22T05:59:38.550Z,32.80
2018-11-22T06:00:38.528Z,32.60
2018-11-22T06:01:38.511Z,33.10
2018-11-22T06:02:38.492Z,33.40
2018-11-22T06:03:38.480Z,34.60
2018-11-22T06:04:38.461Z,33.80
2018-11-22T06:05:38.446Z,33.50
2018-11-22T06:06:38.428Z,32.50
2018-11-22T06:07:38.414Z,31.40
2018-11-22T06:08:38.396Z,33.00
2018-11-22T06:09:38.382Z,32.10
2018-11-22T06:10:38.366Z,33.80
2018-11-22T06:11:38.349Z,32.60
2018-11-22T06:12:38.331Z,34.10
2018-11-22T06:13:38.310Z,33.80
2018-11-22T06:14:38.295Z,33.10
2018-11-22T06:15:38.277Z,33.40
2018-11-22T06:16:38.261Z,34.00
2018-11-22T06:17:38.244Z,34.20
2018-11-22T06:18:38.230Z,34.50
2018-11-22T06:19:38.212Z,34.80
2018-11-22T06:20:38.197Z,34.60
2018-11-22T06:21:38.181Z,34.60
2018-11-22T06:22:38.164Z,35.40
2018-11-22T06:23:38.146Z,35.10
2018-11-22T06:24:38.128Z,33.80
2018-11-22T06:25:38.113Z,33.80
2018-11-22T06:26:38.094Z,33.80
2018-11-22T06:27:38.082Z,35.00
2018-11-22T06:28:38.062Z,36.00
2018-11-22T06:29:38.044Z,33.70
2018-11-22T06:30:38.030Z,35.30
2018-11-22T06:31:38.012Z,34.30
2018-11-22T06:32:38.047Z,34.70
2018-11-22T06:33:37.978Z,35.20
2018-11-22T06:34:37.961Z,35.50
2018-11-22T06:35:37.946Z,37.20
2018-11-22T06:36:37.927Z,35.20
2018-11-22T06:37:37.962Z,35.20
2018-11-22T06:38:37.893Z,34.60
2018-11-22T06:39:37.876Z,34.80
2018-11-22T06:40:37.862Z,35.10
2018-11-22T06:41:37.843Z,34.50
2018-11-22T06:42:37.826Z,34.60
2018-11-22T06:43:37.810Z,33.70
2018-11-22T06:44:37.791Z,34.70
2018-11-22T06:45:37.775Z,32.90
2018-11-22T06:46:37.759Z,33.30
2018-11-22T06:47:37.742Z,32.10
2018-11-22T06:48:37.730Z,33.70
2018-11-22T06:49:37.708Z,32.80
2018-11-22T06:50:37.692Z,32.50
2018-11-22T06:51:37.673Z,33.80
2018-11-22T06:52:37.663Z,32.30
2018-11-22T06:53:37.642Z,32.20
2018-11-22T06:54:37.623Z,33.00
2018-11-22T06:55:37.608Z,32.80
2018-11-22T06:56:37.593Z,35.10
2018-11-22T06:57:37.573Z,32.20
2018-11-22T06:58:37.556Z,30.10
2018-11-22T06:59:37.538Z,31.30
2018-11-22T07:00:37.522Z,30.60
2018-11-22T07:01:37.505Z,31.60
2018-11-22T07:02:37.488Z,31.00
2018-11-22T07:03:37.470Z,30.90
2018-11-22T07:04:37.455Z,31.00
2018-11-22T07:05:37.437Z,30.20
2018-11-22T07:06:37.422Z,30.60
2018-11-22T07:07:37.407Z,30.10
2018-11-22T07:08:37.387Z,31.10
2018-11-22T07:09:37.371Z,29.20
2018-11-22T07:10:37.356Z,30.90
2018-11-22T07:11:37.340Z,29.70
2018-11-22T07:12:37.322Z,30.90
2018-11-22T07:13:37.305Z,31.00
2018-11-22T07:14:37.289Z,30.20
2018-11-22T07:15:37.271Z,31.40
2018-11-22T07:16:37.254Z,31.10
2018-11-22T07:17:37.239Z,32.90
2018-11-22T07:18:37.222Z,32.80
2018-11-22T07:19:37.206Z,31.50
2018-11-22T07:20:37.188Z,31.80
2018-11-22T07:21:37.173Z,31.40
2018-11-22T07:22:37.165Z,31.20
2018-11-22T07:23:37.139Z,32.70
2018-11-22T07:24:37.123Z,30.20
2018-11-22T07:25:37.107Z,31.40
2018-11-22T07:26:37.091Z,30.60
2018-11-22T07:27:38.349Z,31.30
2018-11-22T07:28:37.060Z,30.30
2018-11-22T07:29:37.040Z,32.20
2018-11-22T07:30:42.274Z,29.70
2018-11-22T07:31:37.007Z,30.20
2018-11-22T07:32:36.991Z,32.10
2018-11-22T07:33:38.280Z,30.90
2018-11-22T07:34:36.956Z,31.20
2018-11-22T07:35:36.941Z,30.60
2018-11-22T07:36:36.927Z,31.90
2018-11-22T07:37:36.907Z,31.90
2018-11-22T07:38:36.889Z,31.30
2018-11-22T07:39:36.873Z,33.20
2018-11-22T07:40:36.857Z,32.00
2018-11-22T07:41:36.845Z,31.30
2018-11-22T07:42:36.824Z,32.10
2018-11-22T07:43:36.805Z,31.50
2018-11-22T07:44:36.790Z,30.40
2018-11-22T07:45:36.777Z,31.80
2018-11-22T07:46:36.757Z,31.80
2018-11-22T07:47:36.739Z,31.00
2018-11-22T07:48:36.723Z,31.60
2018-11-22T07:49:36.709Z,29.90
2018-11-22T07:50:36.689Z,30.80
2018-11-22T07:51:36.672Z,30.20
2018-11-22T07:52:36.660Z,30.50
2018-11-22T07:53:36.642Z,30.90
2018-11-22T07:54:36.621Z,29.90
2018-11-22T07:55:36.608Z,30.20
2018-11-22T07:56:36.592Z,29.20
2018-11-22T07:57:36.575Z,31.30
2018-11-22T07:58:36.558Z,30.00
2018-11-22T07:59:36.539Z,29.30
2018-11-22T08:00:36.525Z,29.50
2018-11-22T08:01:36.529Z,28.70
2018-11-22T08:02:36.490Z,27.90
2018-11-22T08:03:36.475Z,28.90
2018-11-22T08:04:36.462Z,29.40
2018-11-22T08:05:36.442Z,27.90
2018-11-22T08:06:36.423Z,28.50
2018-11-22T08:07:36.407Z,29.20
2018-11-22T08:08:36.392Z,28.40
2018-11-22T08:09:36.375Z,28.30
2018-11-22T08:10:36.357Z,29.10
2018-11-22T08:11:36.342Z,28.60
2018-11-22T08:12:36.373Z,29.40
2018-11-22T08:13:36.310Z,26.90
2018-11-22T08:14:36.297Z,29.70
2018-11-22T08:15:36.278Z,29.60
2018-11-22T08:16:36.261Z,29.40
2018-11-22T08:17:36.245Z,30.90
2018-11-22T08:18:36.228Z,30.00
2018-11-22T08:19:36.212Z,31.00
2018-11-22T08:20:36.199Z,30.40
2018-11-22T08:21:38.321Z,31.00
2018-11-22T08:22:36.162Z,30.20
2018-11-22T08:23:36.144Z,28.60
2018-11-22T08:24:36.129Z,30.10
2018-11-22T08:25:36.112Z,30.20
2018-11-22T08:26:36.094Z,29.80
2018-11-22T08:27:36.077Z,29.40
2018-11-22T08:28:36.060Z,30.00
2018-11-22T08:29:36.044Z,31.20
2018-11-22T08:30:36.027Z,29.70
2018-11-22T08:31:36.013Z,29.90
2018-11-22T08:32:35.999Z,30.20
2018-11-22T08:33:35.979Z,29.70
2018-11-22T08:34:35.961Z,29.80
2018-11-22T08:35:35.947Z,29.90
2018-11-22T08:36:35.933Z,30.10
2018-11-22T08:37:35.914Z,30.10
2018-11-22T08:38:35.897Z,28.70
2018-11-22T08:39:35.880Z,30.40
2018-11-22T08:40:35.865Z,28.70
2018-11-22T08:41:35.847Z,29.90
2018-11-22T08:42:35.836Z,28.70
2018-11-22T08:43:35.815Z,29.10
2018-11-22T08:44:35.802Z,28.50
2018-11-22T08:45:35.784Z,29.50
2018-11-22T08:46:35.766Z,28.30
2018-11-22T08:47:35.750Z,28.10
2018-11-22T08:48:35.735Z,27.60
2018-11-22T08:49:35.718Z,29.40
2018-11-22T08:50:35.703Z,28.50
2018-11-22T08:51:35.686Z,28.70
2018-11-22T08:52:35.668Z,28.10
2018-11-22T08:53:37.175Z,29.10
2018-11-22T08:54:35.638Z,29.30
2018-11-22T08:55:35.619Z,28.10
2018-11-22T08:56:35.607Z,28.60
2018-11-22T08:57:35.590Z,29.20
2018-11-22T08:58:35.571Z,29.10
2018-11-22T08:59:35.557Z,27.70
2018-11-22T09:00:35.543Z,27.70
2018-11-22T09:01:35.529Z,28.40
2018-11-22T09:02:35.514Z,28.10
2018-11-22T09:03:35.492Z,28.40
2018-11-22T09:04:35.478Z,28.30
2018-11-22T09:05:35.459Z,27.10
2018-11-22T09:06:35.444Z,26.60
2018-11-22T09:07:35.427Z,26.90
2018-11-22T09:08:35.412Z,27.40
2018-11-22T09:09:35.396Z,27.00
2018-11-22T09:10:35.380Z,26.90
2018-11-22T09:11:35.363Z,26.20
2018-11-22T09:12:35.347Z,27.30
2018-11-22T09:13:35.333Z,27.40
2018-11-22T09:14:35.314Z,27.40
2018-11-22T09:15:35.299Z,28.70
2018-11-22T09:16:35.284Z,27.70
2018-11-22T09:17:35.268Z,28.70
2018-11-22T09:18:35.250Z,29.30
2018-11-22T09:19:35.238Z,29.30
2018-11-22T09:20:35.220Z,28.90
2018-11-22T09:21:35.206Z,28.40
2018-11-22T09:22:35.189Z,30.40
2018-11-22T09:23:38.463Z,29.40
2018-11-22T09:24:35.158Z,27.80
2018-11-22T09:25:35.142Z,28.80
2018-11-22T09:26:35.132Z,29.00
2018-11-22T09:27:35.111Z,28.50
2018-11-22T09:28:35.093Z,28.70
2018-11-22T09:29:39.500Z,27.70
2018-11-22T09:30:35.063Z,29.00
2018-11-22T09:31:35.047Z,28.40
2018-11-22T09:32:35.032Z,28.80
2018-11-22T09:33:35.016Z,27.20
2018-11-22T09:34:34.998Z,25.30
2018-11-22T09:35:34.983Z,26.20
2018-11-22T09:36:34.967Z,28.00
2018-11-22T09:37:34.952Z,27.90
2018-11-22T09:38:34.933Z,27.30
2018-11-22T09:39:34.920Z,29.20
2018-11-22T09:40:34.904Z,27.80
2018-11-22T09:41:34.889Z,27.70
2018-11-22T09:42:34.873Z,27.50
2018-11-22T09:43:34.856Z,28.60
2018-11-22T09:44:34.844Z,27.30
2018-11-22T09:45:34.825Z,27.00
2018-11-22T09:46:34.811Z,27.40
2018-11-22T09:47:34.795Z,26.80
2018-11-22T09:48:34.799Z,27.30
2018-11-22T09:49:34.766Z,27.30
2018-11-22T09:50:34.748Z,29.00
2018-11-22T09:51:34.734Z,29.00
2018-11-22T09:52:34.717Z,27.60
2018-11-22T09:53:34.703Z,28.30
2018-11-22T09:54:34.686Z,29.20
2018-11-22T09:55:34.670Z,28.90
2018-11-22T09:56:34.655Z,28.50
2018-11-22T09:57:34.639Z,29.00
2018-11-22T09:58:34.625Z,29.00
2018-11-22T09:59:34.608Z,30.40
2018-11-22T10:00:34.593Z,28.80
2018-11-22T10:01:34.579Z,29.50
2018-11-22T10:02:34.562Z,30.10
2018-11-22T10:03:34.545Z,28.90
2018-11-22T10:04:34.586Z,30.30
2018-11-22T10:05:34.547Z,30.20
2018-11-22T10:06:34.503Z,30.10
2018-11-22T10:07:34.484Z,29.80
2018-11-22T10:08:34.524Z,30.00
2018-11-22T10:09:34.453Z,31.20
2018-11-22T10:10:34.437Z,30.10
2018-11-22T10:11:34.423Z,30.40
2018-11-22T10:12:34.491Z,30.70
2018-11-22T10:13:34.392Z,29.20
2018-11-22T10:14:34.377Z,29.20
2018-11-22T10:15:34.360Z,29.40
2018-11-22T10:16:34.348Z,28.90
2018-11-22T10:17:34.331Z,29.80
2018-11-22T10:18:34.395Z,30.60
2018-11-22T10:19:34.300Z,29.50
2018-11-22T10:20:34.285Z,30.70
2018-11-22T10:21:34.270Z,30.90
2018-11-22T10:22:34.276Z,29.20
2018-11-22T10:23:34.240Z,28.80
2018-11-22T10:24:34.224Z,29.90
2018-11-22T10:25:34.208Z,28.00
2018-11-22T10:26:34.191Z,29.30
2018-11-22T10:27:34.176Z,29.50
2018-11-22T10:28:34.161Z,30.70
2018-11-22T10:29:34.148Z,29.80
2018-11-22T10:30:34.130Z,29.50
2018-11-22T10:31:34.152Z,31.80
2018-11-22T10:32:34.102Z,30.20
2018-11-22T10:33:34.087Z,29.40
2018-11-22T10:34:34.069Z,29.60
2018-11-22T10:35:34.056Z,29.90
2018-11-22T10:36:34.039Z,30.40
2018-11-22T10:37:34.040Z,31.70
2018-11-22T10:38:34.011Z,32.00
2018-11-22T10:39:33.996Z,31.50
2018-11-22T10:40:33.979Z,30.10
2018-11-22T10:41:33.966Z,29.60
2018-11-22T10:42:34.035Z,30.00
2018-11-22T10:43:33.935Z,29.80
2018-11-22T10:44:33.922Z,29.30
2018-11-22T10:45:33.905Z,29.60
2018-11-22T10:46:33.894Z,31.30
2018-11-22T10:47:33.874Z,31.50
2018-11-22T10:48:33.861Z,33.10
2018-11-22T10:49:33.844Z,32.70
2018-11-22T10:50:33.828Z,32.60
2018-11-22T10:51:33.813Z,33.30
2018-11-22T10:52:33.802Z,32.30
2018-11-22T10:53:33.786Z,31.40
2018-11-22T10:54:33.770Z,30.80
2018-11-22T10:55:33.753Z,31.80
2018-11-22T10:56:33.738Z,29.00
2018-11-22T10:57:33.724Z,29.90
2018-11-22T10:58:33.709Z,29.20
2018-11-22T10:59:33.694Z,29.80
2018-11-22T11:00:33.678Z,30.00
2018-11-22T11:01:33.663Z,30.50
2018-11-22T11:02:33.649Z,29.70
2018-11-22T11:03:33.634Z,29.90
2018-11-22T11:04:33.619Z,30.90
2018-11-22T11:05:33.607Z,28.90
2018-11-22T11:06:33.587Z,28.00
2018-11-22T11:07:33.575Z,27.80
2018-11-22T11:08:33.560Z,28.30
2018-11-22T11:09:33.544Z,27.80
2018-11-22T11:10:33.528Z,28.30
2018-11-22T11:11:33.512Z,26.90
2018-11-22T11:12:33.499Z,26.70
2018-11-22T11:13:33.483Z,27.30
2018-11-22T11:14:33.468Z,28.20
2018-11-22T11:15:33.456Z,29.20
2018-11-22T11:16:33.439Z,30.60
2018-11-22T11:17:33.423Z,30.20
2018-11-22T11:18:33.409Z,29.30
2018-11-22T11:19:33.395Z,28.50
2018-11-22T11:20:33.379Z,28.80
2018-11-22T11:21:34.184Z,27.70
2018-11-22T11:22:33.349Z,27.30
2018-11-22T11:23:33.332Z,28.20
2018-11-22T11:24:33.893Z,28.40
2018-11-22T11:25:33.307Z,27.80
2018-11-22T11:26:33.287Z,29.90
2018-11-22T11:27:33.272Z,31.10
2018-11-22T11:28:33.259Z,31.30
2018-11-22T11:29:33.244Z,32.80
2018-11-22T11:30:33.227Z,32.70
2018-11-22T11:31:33.216Z,31.70
2018-11-22T11:32:33.199Z,32.30
2018-11-22T11:33:33.189Z,32.80
2018-11-22T11:34:33.170Z,31.50
2018-11-22T11:35:33.154Z,33.20
2018-11-22T11:36:33.139Z,31.00
2018-11-22T11:37:33.124Z,30.40
2018-11-22T11:38:33.109Z,32.00
2018-11-22T11:39:33.093Z,32.30
2018-11-22T11:40:33.079Z,31.40
2018-11-22T11:41:33.065Z,32.40
2018-11-22T11:42:33.049Z,31.90
2018-11-22T11:43:33.034Z,33.00
2018-11-22T11:44:33.022Z,32.30
2018-11-22T11:45:33.008Z,31.50
2018-11-22T11:46:32.989Z,31.80
2018-11-22T11:47:32.995Z,30.30
2018-11-22T11:48:32.962Z,31.90
2018-11-22T11:49:32.947Z,31.90
2018-11-22T11:50:32.930Z,33.60
2018-11-22T11:51:32.917Z,32.20
2018-11-22T11:52:32.901Z,31.70
2018-11-22T11:53:41.279Z,32.20
2018-11-22T11:54:32.869Z,31.00
2018-11-22T11:55:32.856Z,31.80
2018-11-22T11:56:32.842Z,31.10
2018-11-22T11:57:32.831Z,31.30
2018-11-22T11:58:32.811Z,33.00
2018-11-22T11:59:32.797Z,30.80
2018-11-22T12:00:32.782Z,31.50
2018-11-22T12:01:32.769Z,32.80
2018-11-22T12:02:32.753Z,33.80
2018-11-22T12:03:32.738Z,32.70
2018-11-22T12:04:32.722Z,33.20
2018-11-22T12:05:32.710Z,32.70
2018-11-22T12:06:32.693Z,32.60
2018-11-22T12:07:32.681Z,31.80
2018-11-22T12:08:32.665Z,30.30
2018-11-22T12:09:32.651Z,31.30
2018-11-22T12:10:32.636Z,31.70
2018-11-22T12:11:32.621Z,32.00
2018-11-22T12:12:32.608Z,33.20
2018-11-22T12:13:33.188Z,32.00
2018-11-22T12:14:32.576Z,33.00
2018-11-22T12:15:32.564Z,33.70
2018-11-22T12:16:32.548Z,34.10
2018-11-22T12:17:32.534Z,33.30
2018-11-22T12:18:36.861Z,35.60
2018-11-22T12:19:32.504Z,34.50
2018-11-22T12:20:32.490Z,32.60
2018-11-22T12:21:32.475Z,31.80
2018-11-22T12:22:32.460Z,32.70
2018-11-22T12:23:32.448Z,30.40
2018-11-22T12:24:32.436Z,31.40
2018-11-22T12:25:32.418Z,29.70
2018-11-22T12:26:32.403Z,31.90
2018-11-22T12:27:32.388Z,31.70
2018-11-22T12:28:32.374Z,33.20
2018-11-22T12:29:32.365Z,32.30
2018-11-22T12:30:32.345Z,31.40
2018-11-22T12:31:32.329Z,31.30
2018-11-22T12:32:32.317Z,31.70
2018-11-22T12:33:32.301Z,32.20
2018-11-22T12:34:32.287Z,32.80
2018-11-22T12:35:32.272Z,32.80
2018-11-22T12:36:32.259Z,30.70
2018-11-22T12:37:32.245Z,32.10
2018-11-22T12:38:32.230Z,31.80
2018-11-22T12:39:32.215Z,31.50
2018-11-22T12:40:32.200Z,32.10
2018-11-22T12:41:32.188Z,31.10
2018-11-22T12:42:32.174Z,32.60
2018-11-22T12:43:32.159Z,31.40
2018-11-22T12:44:32.144Z,30.80
2018-11-22T12:45:32.133Z,30.60
2018-11-22T12:46:32.113Z,30.10
2018-11-22T12:47:32.099Z,29.10
2018-11-22T12:48:32.086Z,31.80
2018-11-22T12:49:32.073Z,30.00
2018-11-22T12:50:32.056Z,31.60
2018-11-22T12:51:32.044Z,32.10
2018-11-22T12:52:32.032Z,31.30